createdAt,value
2023-02-22T00:00:44.010Z,11.72
2023-02-22T00:03:24.937Z,11.72
2023-02-22T00:06:04.769Z,11.74
2023-02-22T00:08:34.066Z,11.72
2023-02-22T00:11:02.224Z,11.73
2023-02-22T00:13:29.710Z,11.73
2023-02-22T00:15:57.504Z,11.74
2023-02-22T00:18:24.593Z,11.74
2023-02-22T00:20:51.432Z,11.74
2023-02-22T00:23:21.460Z,11.74
2023-02-22T00:25:50.131Z,11.75
2023-02-22T00:28:18.840Z,11.75
2023-02-22T00:30:45.694Z,11.76
2023-02-22T00:33:14.386Z,11.75
2023-02-22T00:35:41.910Z,11.76
2023-02-22T00:38:08.255Z,11.76
2023-02-22T00:40:35.322Z,11.76
2023-02-22T00:43:03.696Z,11.76
2023-02-22T00:45:32.890Z,11.76
2023-02-22T00:48:00.250Z,11.76
2023-02-22T00:50:28.622Z,11.76
2023-02-22T00:52:56.424Z,11.75
2023-02-22T00:55:26.878Z,11.76
2023-02-22T00:57:53.821Z,11.76
2023-02-22T01:00:26.551Z,11.77
2023-02-22T01:02:54.308Z,11.76
2023-02-22T01:05:22.785Z,11.76
2023-02-22T01:07:50.266Z,11.75
2023-02-22T01:10:19.967Z,11.76
2023-02-22T01:12:47.223Z,11.73
2023-02-22T01:15:15.840Z,11.73
2023-02-22T01:17:43.713Z,11.71
2023-02-22T01:20:14.150Z,11.69
2023-02-22T01:22:45.655Z,11.70
2023-02-22T01:25:16.071Z,11.66
2023-02-22T01:27:42.433Z,11.65
2023-02-22T01:30:12.199Z,11.63
2023-02-22T01:32:41.515Z,11.63
2023-02-22T01:35:18.462Z,11.61
2023-02-22T01:37:45.563Z,11.60
2023-02-22T01:40:23.056Z,11.60
2023-02-22T01:42:54.067Z,11.60
2023-02-22T01:45:29.477Z,11.59
2023-02-22T01:48:22.577Z,11.60
2023-02-22T01:50:54.732Z,11.60
2023-02-22T01:53:26.919Z,11.59
2023-02-22T01:55:55.212Z,11.58
2023-02-22T01:58:24.075Z,11.54
2023-02-22T02:00:50.940Z,11.52
2023-02-22T02:03:22.244Z,11.51
2023-02-22T02:05:51.936Z,11.49
2023-02-22T02:08:42.359Z,11.47
2023-02-22T02:11:09.960Z,11.43
2023-02-22T02:13:36.611Z,11.41
2023-02-22T02:16:03.448Z,11.39
2023-02-22T02:18:30.182Z,11.38
2023-02-22T02:20:56.493Z,11.37
2023-02-22T02:23:59.792Z,11.37
2023-02-22T02:26:41.483Z,11.37
2023-02-22T02:29:38.885Z,11.36
2023-02-22T02:32:35.218Z,11.34
2023-02-22T02:35:21.508Z,11.32
2023-02-22T02:38:16.209Z,11.28
2023-02-22T02:40:55.734Z,11.25
2023-02-22T02:43:31.329Z,11.18
2023-02-22T02:46:14.322Z,11.10
2023-02-22T02:48:45.563Z,11.02
2023-02-22T02:51:14.282Z,10.92
2023-02-22T02:53:44.736Z,10.84
2023-02-22T02:56:11.522Z,10.73
2023-02-22T02:58:49.049Z,10.66
2023-02-22T03:01:40.341Z,10.57
2023-02-22T03:04:27.045Z,10.45
2023-02-22T03:07:38.510Z,10.37
2023-02-22T03:10:26.829Z,10.27
2023-02-22T03:13:15.838Z,10.17
2023-02-22T03:15:54.140Z,10.09
2023-02-22T03:19:04.711Z,10.00
2023-02-22T03:21:55.417Z,9.93
2023-02-22T03:25:02.162Z,9.85
2023-02-22T03:27:41.536Z,9.79
2023-02-22T03:30:12.282Z,9.73
2023-02-22T03:32:43.509Z,9.68
2023-02-22T03:35:16.522Z,9.64
2023-02-22T03:37:48.763Z,9.62
2023-02-22T03:40:26.425Z,9.61
2023-02-22T03:43:00.338Z,9.60
2023-02-22T03:45:29.995Z,9.61
2023-02-22T03:48:44.059Z,9.65
2023-02-22T03:51:16.668Z,9.68
2023-02-22T03:53:44.594Z,9.72
2023-02-22T03:56:15.246Z,9.75
2023-02-22T03:58:47.909Z,9.81
2023-02-22T04:01:15.691Z,9.85
2023-02-22T04:03:42.639Z,9.90
2023-02-22T04:06:09.781Z,9.95
2023-02-22T04:08:36.204Z,10.00
2023-02-22T04:11:03.455Z,10.05
2023-02-22T04:13:29.875Z,10.11
2023-02-22T04:15:56.405Z,10.16
2023-02-22T04:18:22.861Z,10.21
2023-02-22T04:20:49.411Z,10.25
2023-02-22T04:23:16.874Z,10.30
2023-02-22T04:25:43.492Z,10.33
2023-02-22T04:28:09.873Z,10.37
2023-02-22T04:30:36.266Z,10.39
2023-02-22T04:33:02.629Z,10.41
2023-02-22T04:35:29.013Z,10.41
2023-02-22T04:37:55.469Z,10.41
2023-02-22T04:40:22.097Z,10.41
2023-02-22T04:42:48.425Z,10.40
2023-02-22T04:45:14.977Z,10.39
2023-02-22T04:47:41.392Z,10.40
2023-02-22T04:50:09.279Z,10.39
2023-02-22T04:52:35.712Z,10.39
2023-02-22T04:55:02.166Z,10.39
2023-02-22T04:57:28.574Z,10.39
2023-02-22T04:59:54.925Z,10.41
2023-02-22T05:02:21.476Z,10.41
2023-02-22T05:04:48.043Z,10.42
2023-02-22T05:07:14.499Z,10.43
2023-02-22T05:09:41.059Z,10.44
2023-02-22T05:12:07.620Z,10.45
2023-02-22T05:14:34.019Z,10.46
2023-02-22T05:17:01.494Z,10.47
2023-02-22T05:19:27.864Z,10.48
2023-02-22T05:21:56.322Z,10.48
2023-02-22T05:24:22.740Z,10.48
2023-02-22T05:26:51.264Z,10.47
2023-02-22T05:29:17.894Z,10.47
2023-02-22T05:31:44.303Z,10.45
2023-02-22T05:34:10.847Z,10.45
2023-02-22T05:36:37.232Z,10.44
2023-02-22T05:39:05.336Z,10.41
2023-02-22T05:41:31.771Z,10.39
2023-02-22T05:43:58.145Z,10.38
2023-02-22T05:46:25.094Z,10.36
2023-02-22T05:48:51.568Z,10.34
2023-02-22T05:51:19.699Z,10.32
2023-02-22T05:53:46.403Z,10.30
2023-02-22T05:56:12.813Z,10.27
2023-02-22T05:58:39.253Z,10.26
2023-02-22T06:01:05.792Z,10.25
2023-02-22T06:03:32.214Z,10.23
2023-02-22T06:05:58.870Z,10.21
2023-02-22T06:08:25.283Z,10.19
2023-02-22T06:10:51.657Z,10.17
2023-02-22T06:13:18.082Z,10.14
2023-02-22T06:15:44.491Z,10.13
2023-02-22T06:18:10.995Z,10.11
2023-02-22T06:20:37.473Z,10.08
2023-02-22T06:23:03.803Z,10.09
2023-02-22T06:25:31.497Z,10.08
2023-02-22T06:27:59.255Z,10.06
2023-02-22T06:30:26.704Z,10.04
2023-02-22T06:32:53.438Z,10.03
2023-02-22T06:35:20.886Z,10.02
2023-02-22T06:37:47.716Z,10.01
2023-02-22T06:40:15.298Z,10.01
2023-02-22T06:42:41.959Z,10.00
2023-02-22T06:45:09.026Z,9.99
2023-02-22T06:47:40.353Z,10.00
2023-02-22T06:50:08.762Z,9.98
2023-02-22T06:52:35.237Z,9.98
2023-02-22T06:55:01.620Z,9.97
2023-02-22T06:57:27.994Z,9.97
2023-02-22T06:59:54.558Z,9.98
2023-02-22T07:02:20.964Z,9.98
2023-02-22T07:04:47.342Z,9.97
2023-02-22T07:07:13.766Z,9.98
2023-02-22T07:09:40.133Z,9.98
2023-02-22T07:12:07.840Z,9.97
2023-02-22T07:14:34.208Z,9.97
2023-02-22T07:17:00.546Z,9.98
2023-02-22T07:19:26.942Z,9.98
2023-02-22T07:21:59.053Z,10.00
2023-02-22T07:24:28.378Z,10.01
2023-02-22T07:26:55.097Z,10.03
2023-02-22T07:29:22.340Z,10.07
2023-02-22T07:31:48.758Z,10.10
2023-02-22T07:34:15.099Z,10.13
2023-02-22T07:36:41.427Z,10.16
2023-02-22T07:39:08.670Z,10.20
2023-02-22T07:41:35.199Z,10.20
2023-02-22T07:44:01.633Z,10.24
2023-02-22T07:46:28.050Z,10.26
2023-02-22T07:48:54.518Z,10.30
2023-02-22T07:51:21.038Z,10.35
2023-02-22T07:53:48.406Z,10.38
2023-02-22T07:56:14.777Z,10.42
2023-02-22T07:58:41.583Z,10.43
2023-02-22T08:01:08.603Z,10.47
2023-02-22T08:03:36.669Z,10.49
2023-02-22T08:06:05.161Z,10.52
2023-02-22T08:08:31.696Z,10.53
2023-02-22T08:10:58.246Z,10.54
2023-02-22T08:13:24.683Z,10.57
2023-02-22T08:15:53.597Z,10.61
2023-02-22T08:18:21.237Z,10.63
2023-02-22T08:20:49.940Z,10.67
2023-02-22T08:23:18.082Z,10.71
2023-02-22T08:25:45.035Z,10.74
2023-02-22T08:28:15.087Z,10.79
2023-02-22T08:30:45.317Z,10.83
2023-02-22T08:33:21.249Z,10.88
2023-02-22T08:35:49.613Z,10.91
2023-02-22T08:38:25.710Z,10.95
2023-02-22T08:40:52.022Z,11.03
2023-02-22T08:43:19.637Z,11.08
2023-02-22T08:45:47.238Z,11.09
2023-02-22T08:48:15.136Z,11.10
2023-02-22T08:50:41.914Z,11.11
2023-02-22T08:53:09.711Z,11.12
2023-02-22T08:55:38.506Z,11.14
2023-02-22T08:58:09.130Z,11.17
2023-02-22T09:00:38.598Z,11.21
2023-02-22T09:03:08.782Z,11.26
2023-02-22T09:05:35.190Z,11.30
2023-02-22T09:08:01.670Z,11.34
2023-02-22T09:10:30.921Z,11.41
2023-02-22T09:13:00.505Z,11.48
2023-02-22T09:15:27.357Z,11.55
2023-02-22T09:17:54.418Z,11.60
2023-02-22T09:20:23.719Z,11.65
2023-02-22T09:22:50.423Z,11.69
2023-02-22T09:25:18.012Z,11.75
2023-02-22T09:27:47.820Z,11.82
2023-02-22T09:30:35.657Z,11.90
2023-02-22T09:33:05.665Z,11.98
2023-02-22T09:35:36.406Z,12.05
2023-02-22T09:38:06.054Z,12.12
2023-02-22T09:40:40.966Z,12.17
2023-02-22T09:43:31.146Z,12.24
2023-02-22T09:46:20.817Z,12.35
2023-02-22T09:49:13.822Z,12.43
2023-02-22T09:51:49.210Z,12.51
2023-02-22T09:54:28.135Z,12.59
2023-02-22T09:56:58.335Z,12.65
2023-02-22T09:59:31.444Z,12.73
2023-02-22T10:02:24.440Z,12.84
2023-02-22T10:05:06.430Z,12.93
2023-02-22T10:07:38.962Z,13.00
2023-02-22T10:10:06.397Z,13.05
2023-02-22T10:12:51.525Z,13.15
2023-02-22T10:15:37.201Z,13.22
2023-02-22T10:18:24.811Z,13.30
2023-02-22T10:21:17.568Z,13.36
2023-02-22T10:24:04.969Z,13.44
2023-02-22T10:26:36.608Z,13.49
2023-02-22T10:29:22.735Z,13.55
2023-02-22T10:31:56.616Z,13.60
2023-02-22T10:34:26.301Z,13.66
2023-02-22T10:37:03.457Z,13.70
2023-02-22T10:39:35.244Z,13.76
2023-02-22T10:42:08.043Z,13.80
2023-02-22T10:44:38.953Z,13.84
2023-02-22T10:47:08.867Z,13.90
2023-02-22T10:49:39.888Z,13.92
2023-02-22T10:52:24.406Z,13.96
2023-02-22T10:54:52.065Z,13.98
2023-02-22T10:57:32.144Z,14.05
2023-02-22T11:00:13.905Z,14.10
2023-02-22T11:02:51.449Z,14.19
2023-02-22T11:05:30.560Z,14.25
2023-02-22T11:08:23.632Z,14.32
2023-02-22T11:10:56.636Z,14.39
2023-02-22T11:13:27.969Z,14.46
2023-02-22T11:15:58.081Z,14.52
2023-02-22T11:18:29.604Z,14.58
2023-02-22T11:21:06.212Z,14.67
2023-02-22T11:23:33.981Z,14.72
2023-02-22T11:26:10.021Z,14.80
2023-02-22T11:28:37.461Z,14.87
2023-02-22T11:31:15.528Z,14.96
2023-02-22T11:36:37.877Z,15.12
2023-02-22T11:39:11.328Z,15.19
2023-02-22T11:41:37.930Z,15.28
2023-02-22T11:44:28.382Z,15.36
2023-02-22T11:46:57.673Z,15.44
2023-02-22T11:49:33.255Z,15.50
2023-02-22T11:52:16.502Z,15.58
2023-02-22T11:55:07.317Z,15.65
2023-02-22T11:57:33.599Z,15.69
2023-02-22T12:00:27.732Z,15.76
2023-02-22T12:03:15.890Z,15.82
2023-02-22T12:05:42.760Z,15.86
2023-02-22T12:08:25.231Z,15.93
2023-02-22T12:11:22.904Z,16.01
2023-02-22T12:14:07.466Z,16.08
2023-02-22T12:16:45.853Z,16.14
2023-02-22T12:19:27.948Z,16.23
2023-02-22T12:22:03.460Z,16.31
2023-02-22T12:25:09.113Z,16.41
2023-02-22T12:27:46.990Z,16.52
2023-02-22T12:30:21.951Z,16.60
2023-02-22T12:32:53.469Z,16.66
2023-02-22T12:35:29.964Z,16.74
2023-02-22T12:38:22.987Z,16.81
2023-02-22T12:41:15.187Z,16.87
2023-02-22T12:43:51.815Z,16.92
2023-02-22T12:46:24.631Z,16.96
2023-02-22T12:49:17.786Z,16.99
2023-02-22T12:51:54.366Z,17.04
2023-02-22T12:54:45.642Z,17.07
2023-02-22T12:57:31.050Z,17.10
2023-02-22T13:00:03.005Z,17.10
2023-02-22T13:02:45.637Z,17.11
2023-02-22T13:05:17.886Z,17.13
2023-02-22T13:08:24.773Z,17.13
2023-02-22T13:11:19.857Z,17.14
2023-02-22T13:13:54.560Z,17.11
2023-02-22T13:16:52.589Z,17.12
2023-02-22T13:19:56.810Z,17.11
2023-02-22T13:22:35.350Z,17.10
2023-02-22T13:25:09.144Z,17.08
2023-02-22T13:28:08.628Z,17.06
2023-02-22T13:30:41.287Z,17.03
2023-02-22T13:33:29.560Z,17.01
2023-02-22T13:36:19.360Z,16.99
2023-02-22T13:39:04.421Z,16.96
2023-02-22T13:41:51.754Z,16.95
2023-02-22T13:44:45.602Z,16.97
2023-02-22T13:47:14.952Z,16.99
2023-02-22T13:49:44.306Z,17.00
2023-02-22T13:52:17.944Z,17.02
2023-02-22T13:55:00.174Z,17.04
2023-02-22T13:57:36.797Z,17.05
2023-02-22T14:00:15.056Z,17.08
2023-02-22T14:03:02.686Z,17.11
2023-02-22T14:05:36.408Z,17.13
2023-02-22T14:08:25.200Z,17.16
2023-02-22T14:10:59.026Z,17.18
2023-02-22T14:13:27.058Z,17.20
2023-02-22T14:16:02.645Z,17.23
2023-02-22T14:18:37.561Z,17.25
2023-02-22T14:21:22.673Z,17.29
2023-02-22T14:23:53.865Z,17.32
2023-02-22T14:26:20.346Z,17.33
2023-02-22T14:29:10.329Z,17.37
2023-02-22T14:31:59.792Z,17.40
2023-02-22T14:34:44.780Z,17.42
2023-02-22T14:37:31.256Z,17.43
2023-02-22T14:39:57.767Z,17.47
2023-02-22T14:42:32.592Z,17.46
2023-02-22T14:45:14.132Z,17.43
2023-02-22T14:48:11.719Z,17.41
2023-02-22T14:50:41.391Z,17.40
2023-02-22T14:53:14.232Z,17.36
2023-02-22T14:55:50.730Z,17.34
2023-02-22T14:58:23.375Z,17.31
2023-02-22T15:00:56.815Z,17.27
2023-02-22T15:03:37.108Z,17.25
2023-02-22T15:06:14.797Z,17.21
2023-02-22T15:08:46.421Z,17.18
2023-02-22T15:11:31.066Z,17.14
2023-02-22T15:13:58.493Z,17.08
2023-02-22T15:16:27.604Z,17.05
2023-02-22T15:18:58.001Z,17.02
2023-02-22T15:21:27.538Z,16.99
2023-02-22T15:24:07.603Z,16.96
2023-02-22T15:26:59.025Z,16.93
2023-02-22T15:29:35.050Z,16.93
2023-02-22T15:32:01.881Z,16.88
2023-02-22T15:34:31.514Z,16.86
2023-02-22T15:37:14.625Z,16.84
2023-02-22T15:39:43.862Z,16.80
2023-02-22T15:42:20.910Z,16.78
2023-02-22T15:44:48.751Z,16.75
2023-02-22T15:47:21.084Z,16.73
2023-02-22T15:50:21.064Z,16.68
2023-02-22T15:53:18.080Z,16.65
2023-02-22T15:55:47.263Z,16.59
2023-02-22T15:58:16.950Z,16.55
2023-02-22T16:00:46.869Z,16.52
2023-02-22T16:03:22.985Z,16.48
2023-02-22T16:05:57.912Z,16.41
2023-02-22T16:08:29.284Z,16.38
2023-02-22T16:11:02.242Z,16.34
2023-02-22T16:13:33.167Z,16.28
2023-02-22T16:16:25.025Z,16.24
2023-02-22T16:18:52.187Z,16.17
2023-02-22T16:21:21.640Z,16.12
2023-02-22T16:23:55.996Z,16.07
2023-02-22T16:26:34.081Z,16.00
2023-02-22T16:29:01.928Z,15.95
2023-02-22T16:31:39.867Z,15.88
2023-02-22T16:34:08.676Z,15.83
2023-02-22T16:36:48.949Z,15.77
2023-02-22T16:39:27.026Z,15.70
2023-02-22T16:42:02.008Z,15.62
2023-02-22T16:44:29.334Z,15.54
2023-02-22T16:46:58.982Z,15.46
2023-02-22T16:49:26.464Z,15.36
2023-02-22T16:51:55.952Z,15.28
2023-02-22T16:54:36.411Z,15.21
2023-02-22T16:57:04.367Z,15.10
2023-02-22T16:59:38.457Z,15.03
2023-02-22T17:02:07.576Z,14.92
2023-02-22T17:04:34.461Z,14.86
2023-02-22T17:07:04.983Z,14.80
2023-02-22T17:09:31.781Z,14.72
2023-02-22T17:11:58.154Z,14.66
2023-02-22T17:14:29.831Z,14.62
2023-02-22T17:16:59.232Z,14.56
2023-02-22T17:19:26.681Z,14.52
2023-02-22T17:22:05.944Z,14.48
2023-02-22T17:24:33.905Z,14.43
2023-02-22T17:27:01.681Z,14.39
2023-02-22T17:29:29.279Z,14.35
2023-02-22T17:31:56.298Z,14.32
2023-02-22T17:34:22.882Z,14.28
2023-02-22T17:36:49.318Z,14.26
2023-02-22T17:39:16.228Z,14.22
2023-02-22T17:41:42.595Z,14.20
2023-02-22T17:44:09.096Z,14.19
2023-02-22T17:46:37.003Z,14.16
2023-02-22T17:49:03.462Z,14.14
2023-02-22T17:51:29.922Z,14.11
2023-02-22T17:53:56.341Z,14.07
2023-02-22T17:56:22.699Z,14.04
2023-02-22T17:58:53.253Z,13.99
2023-02-22T18:01:25.156Z,13.96
2023-02-22T18:03:51.895Z,13.90
2023-02-22T18:06:22.588Z,13.86
2023-02-22T18:08:55.838Z,13.82
2023-02-22T18:11:26.126Z,13.76
2023-02-22T18:13:57.227Z,13.72
2023-02-22T18:16:25.777Z,13.66
2023-02-22T18:18:52.921Z,13.62
2023-02-22T18:21:19.247Z,13.57
2023-02-22T18:23:48.464Z,13.53
2023-02-22T18:26:17.213Z,13.48
2023-02-22T18:28:44.222Z,13.44
2023-02-22T18:31:16.408Z,13.39
2023-02-22T18:33:44.562Z,13.34
2023-02-22T18:36:11.874Z,13.28
2023-02-22T18:38:42.784Z,13.24
2023-02-22T18:41:12.141Z,13.18
2023-02-22T18:43:38.967Z,13.13
2023-02-22T18:46:18.426Z,13.07
2023-02-22T18:48:51.346Z,13.02
2023-02-22T18:51:17.848Z,12.96
2023-02-22T18:53:47.586Z,12.92
2023-02-22T18:56:17.834Z,12.85
2023-02-22T18:58:44.474Z,12.80
2023-02-22T19:01:17.396Z,12.74
2023-02-22T19:03:46.978Z,12.68
2023-02-22T19:06:14.768Z,12.61
2023-02-22T19:08:42.902Z,12.56
2023-02-22T19:11:11.734Z,12.49
2023-02-22T19:13:38.417Z,12.43
2023-02-22T19:16:07.166Z,12.37
2023-02-22T19:18:33.643Z,12.29
2023-02-22T19:21:01.949Z,12.26
2023-02-22T19:23:28.396Z,12.18
2023-02-22T19:25:55.005Z,12.13
2023-02-22T19:28:27.960Z,12.07
2023-02-22T19:30:54.371Z,12.01
2023-02-22T19:33:25.612Z,11.95
2023-02-22T19:35:52.290Z,11.91
2023-02-22T19:38:19.544Z,11.85
2023-02-22T19:40:45.935Z,11.80
2023-02-22T19:43:14.164Z,11.77
2023-02-22T19:45:40.597Z,11.74
2023-02-22T19:48:07.030Z,11.70
2023-02-22T19:50:33.478Z,11.66
2023-02-22T19:52:59.816Z,11.62
2023-02-22T19:55:32.035Z,11.59
2023-02-22T19:57:58.605Z,11.55
2023-02-22T20:00:25.096Z,11.52
2023-02-22T20:02:58.562Z,11.50
2023-02-22T20:05:24.898Z,11.45
2023-02-22T20:07:52.812Z,11.43
2023-02-22T20:10:19.312Z,11.41
2023-02-22T20:12:46.826Z,11.39
2023-02-22T20:15:13.526Z,11.36
2023-02-22T20:17:40.277Z,11.35
2023-02-22T20:20:07.128Z,11.34
2023-02-22T20:22:35.761Z,11.30
2023-02-22T20:25:02.130Z,11.29
2023-02-22T20:27:28.823Z,11.28
2023-02-22T20:29:55.199Z,11.27
2023-02-22T20:32:24.513Z,11.24
2023-02-22T20:34:50.932Z,11.21
2023-02-22T20:37:19.233Z,11.17
2023-02-22T20:39:45.610Z,11.13
2023-02-22T20:42:12.052Z,11.11
2023-02-22T20:44:38.444Z,11.08
2023-02-22T20:47:05.128Z,11.04
2023-02-22T20:49:31.542Z,11.04
2023-02-22T20:51:58.150Z,11.00
2023-02-22T20:54:24.660Z,10.99
2023-02-22T20:56:52.907Z,10.96
2023-02-22T20:59:19.749Z,10.95
2023-02-22T21:01:50.081Z,10.93
2023-02-22T21:04:16.681Z,10.90
2023-02-22T21:06:44.409Z,10.88
2023-02-22T21:09:13.890Z,10.86
2023-02-22T21:11:40.705Z,10.79
2023-02-22T21:14:07.375Z,10.76
2023-02-22T21:16:36.479Z,10.73
2023-02-22T21:19:05.876Z,10.71
2023-02-22T21:21:32.976Z,10.69
2023-02-22T21:24:01.790Z,10.68
2023-02-22T21:26:30.862Z,10.67
2023-02-22T21:29:04.997Z,10.67
2023-02-22T21:31:32.946Z,10.64
2023-02-22T21:34:00.299Z,10.63
2023-02-22T21:36:28.126Z,10.62
2023-02-22T21:38:57.456Z,10.62
2023-02-22T21:41:27.631Z,10.61
2023-02-22T21:43:55.350Z,10.61
2023-02-22T21:46:22.694Z,10.59
2023-02-22T21:48:49.531Z,10.57
2023-02-22T21:51:23.291Z,10.56
2023-02-22T21:53:52.446Z,10.54
2023-02-22T21:56:24.040Z,10.52
2023-02-22T21:59:02.838Z,10.52
2023-02-22T22:01:34.608Z,10.52
2023-02-22T22:04:02.026Z,10.53
2023-02-22T22:06:30.751Z,10.53
2023-02-22T22:08:59.647Z,10.53
2023-02-22T22:11:26.164Z,10.54
2023-02-22T22:13:57.366Z,10.58
2023-02-22T22:16:26.790Z,10.60
2023-02-22T22:18:54.070Z,10.63
2023-02-22T22:21:22.768Z,10.69
2023-02-22T22:23:50.790Z,10.72
2023-02-22T22:26:19.829Z,10.77
2023-02-22T22:28:48.617Z,10.82
2023-02-22T22:31:17.414Z,10.86
2023-02-22T22:33:44.945Z,10.89
2023-02-22T22:36:14.174Z,10.94
2023-02-22T22:38:40.683Z,10.97
2023-02-22T22:41:09.173Z,11.01
2023-02-22T22:43:37.226Z,11.05
2023-02-22T22:46:06.146Z,11.09
2023-02-22T22:48:36.054Z,11.13
2023-02-22T22:51:06.405Z,11.18
2023-02-22T22:53:33.919Z,11.22
2023-02-22T22:56:03.669Z,11.25
2023-02-22T22:58:34.835Z,11.29
2023-02-22T23:01:06.343Z,11.32
2023-02-22T23:03:36.752Z,11.35
2023-02-22T23:06:04.442Z,11.39
2023-02-22T23:08:43.195Z,11.43
2023-02-22T23:11:12.695Z,11.49
2023-02-22T23:13:39.760Z,11.50
2023-02-22T23:16:12.709Z,11.55
2023-02-22T23:18:43.063Z,11.56
2023-02-22T23:21:10.601Z,11.59
2023-02-22T23:23:37.926Z,11.60
2023-02-22T23:26:17.791Z,11.62
2023-02-22T23:28:46.118Z,11.63
2023-02-22T23:31:15.692Z,11.65
2023-02-22T23:33:43.920Z,11.66
2023-02-22T23:36:12.339Z,11.68
2023-02-22T23:38:39.881Z,11.69
2023-02-22T23:41:10.070Z,11.71
2023-02-22T23:43:40.309Z,11.71
2023-02-22T23:46:10.785Z,11.72
2023-02-22T23:48:46.565Z,11.73
2023-02-22T23:51:15.091Z,11.74
2023-02-22T23:53:45.905Z,11.75
2023-02-22T23:56:18.726Z,11.75
2023-02-22T23:58:50.048Z,11.76
